sensor_id;sensor_type;location;lat;lon;timestamp;P1;durP1;ratioP1;P2;durP2;ratioP2
74612;SDS011;63119;51.788;8.824;2023-04-24T00:00:11;0.57;;;0.50;;
74612;SDS011;63119;51.788;8.824;2023-04-24T00:02:39;1.05;;;0.50;;
74612;SDS011;63119;51.788;8.824;2023-04-24T00:05:06;0.50;;;0.40;;
74612;SDS011;63119;51.788;8.824;2023-04-24T00:07:32;1.00;;;0.60;;
74612;SDS011;63119;51.788;8.824;2023-04-24T00:09:58;1.55;;;0.80;;
74612;SDS011;63119;51.788;8.824;2023-04-24T00:12:23;0.50;;;0.50;;
74612;SDS011;63119;51.788;8.824;2023-04-24T00:14:49;1.00;;;0.57;;
74612;SDS011;63119;51.788;8.824;2023-04-24T00:17:14;3.13;;;0.60;;
74612;SDS011;63119;51.788;8.824;2023-04-24T00:19:39;0.65;;;0.50;;
74612;SDS011;63119;51.788;8.824;2023-04-24T00:22:05;1.23;;;1.07;;
74612;SDS011;63119;51.788;8.824;2023-04-24T00:24:30;0.53;;;0.50;;
74612;SDS011;63119;51.788;8.824;2023-04-24T00:26:56;0.50;;;0.50;;
74612;SDS011;63119;51.788;8.824;2023-04-24T00:29:21;1.60;;;0.70;;
74612;SDS011;63119;51.788;8.824;2023-04-24T00:31:46;0.87;;;0.60;;
74612;SDS011;63119;51.788;8.824;2023-04-24T00:34:12;0.70;;;0.50;;
74612;SDS011;63119;51.788;8.824;2023-04-24T00:36:37;0.63;;;0.50;;
74612;SDS011;63119;51.788;8.824;2023-04-24T00:39:02;0.88;;;0.60;;
74612;SDS011;63119;51.788;8.824;2023-04-24T00:41:28;1.03;;;0.60;;
74612;SDS011;63119;51.788;8.824;2023-04-24T00:43:54;0.50;;;0.50;;
74612;SDS011;63119;51.788;8.824;2023-04-24T00:46:19;0.63;;;0.60;;
74612;SDS011;63119;51.788;8.824;2023-04-24T00:48:45;0.73;;;0.50;;
74612;SDS011;63119;51.788;8.824;2023-04-24T00:51:11;0.55;;;0.45;;
74612;SDS011;63119;51.788;8.824;2023-04-24T00:53:36;0.70;;;0.60;;
74612;SDS011;63119;51.788;8.824;2023-04-24T00:56:02;2.43;;;0.40;;
74612;SDS011;63119;51.788;8.824;2023-04-24T00:58:27;0.88;;;0.40;;
74612;SDS011;63119;51.788;8.824;2023-04-24T01:00:53;2.00;;;0.70;;
74612;SDS011;63119;51.788;8.824;2023-04-24T01:03:20;0.98;;;0.50;;
74612;SDS011;63119;51.788;8.824;2023-04-24T01:05:49;0.68;;;0.47;;
74612;SDS011;63119;51.788;8.824;2023-04-24T01:08:14;1.40;;;0.50;;
74612;SDS011;63119;51.788;8.824;2023-04-24T01:10:40;1.80;;;0.60;;
74612;SDS011;63119;51.788;8.824;2023-04-24T01:13:07;0.40;;;0.40;;
74612;SDS011;63119;51.788;8.824;2023-04-24T01:15:33;0.93;;;0.70;;
74612;SDS011;63119;51.788;8.824;2023-04-24T01:17:58;0.97;;;0.40;;
74612;SDS011;63119;51.788;8.824;2023-04-24T01:20:24;0.63;;;0.47;;
74612;SDS011;63119;51.788;8.824;2023-04-24T01:22:51;0.50;;;0.50;;
74612;SDS011;63119;51.788;8.824;2023-04-24T01:25:16;0.77;;;0.40;;
74612;SDS011;63119;51.788;8.824;2023-04-24T01:27:41;0.50;;;0.50;;
74612;SDS011;63119;51.788;8.824;2023-04-24T01:30:07;1.80;;;0.60;;
74612;SDS011;63119;51.788;8.824;2023-04-24T01:32:33;1.48;;;0.52;;
74612;SDS011;63119;51.788;8.824;2023-04-24T01:34:59;0.43;;;0.40;;
74612;SDS011;63119;51.788;8.824;2023-04-24T01:37:25;0.55;;;0.45;;
74612;SDS011;63119;51.788;8.824;2023-04-24T01:39:51;0.63;;;0.50;;
74612;SDS011;63119;51.788;8.824;2023-04-24T01:42:16;0.60;;;0.40;;
74612;SDS011;63119;51.788;8.824;2023-04-24T01:44:42;0.68;;;0.40;;
74612;SDS011;63119;51.788;8.824;2023-04-24T01:47:07;1.27;;;0.50;;
74612;SDS011;63119;51.788;8.824;2023-04-24T01:49:33;0.68;;;0.50;;
74612;SDS011;63119;51.788;8.824;2023-04-24T01:51:58;2.08;;;0.50;;
74612;SDS011;63119;51.788;8.824;2023-04-24T01:54:23;1.10;;;0.50;;
74612;SDS011;63119;51.788;8.824;2023-04-24T01:56:49;0.83;;;0.43;;
74612;SDS011;63119;51.788;8.824;2023-04-24T01:59:14;0.88;;;0.57;;
74612;SDS011;63119;51.788;8.824;2023-04-24T02:01:41;1.50;;;0.45;;
74612;SDS011;63119;51.788;8.824;2023-04-24T02:04:07;1.47;;;0.50;;
74612;SDS011;63119;51.788;8.824;2023-04-24T02:06:33;0.55;;;0.50;;
74612;SDS011;63119;51.788;8.824;2023-04-24T02:08:59;0.32;;;0.30;;
74612;SDS011;63119;51.788;8.824;2023-04-24T02:11:25;1.75;;;0.52;;
74612;SDS011;63119;51.788;8.824;2023-04-24T02:13:51;1.60;;;0.60;;
74612;SDS011;63119;51.788;8.824;2023-04-24T02:16:17;0.45;;;0.45;;
74612;SDS011;63119;51.788;8.824;2023-04-24T02:18:42;0.82;;;0.68;;
74612;SDS011;63119;51.788;8.824;2023-04-24T02:21:07;0.77;;;0.55;;
74612;SDS011;63119;51.788;8.824;2023-04-24T02:23:34;1.27;;;0.70;;
74612;SDS011;63119;51.788;8.824;2023-04-24T02:25:59;0.80;;;0.60;;
74612;SDS011;63119;51.788;8.824;2023-04-24T02:28:24;0.83;;;0.60;;
74612;SDS011;63119;51.788;8.824;2023-04-24T02:30:50;0.60;;;0.50;;
74612;SDS011;63119;51.788;8.824;2023-04-24T02:33:15;0.88;;;0.55;;
74612;SDS011;63119;51.788;8.824;2023-04-24T02:35:41;1.35;;;0.80;;
74612;SDS011;63119;51.788;8.824;2023-04-24T02:38:06;1.53;;;0.60;;
74612;SDS011;63119;51.788;8.824;2023-04-24T02:40:31;0.97;;;0.70;;
74612;SDS011;63119;51.788;8.824;2023-04-24T02:42:57;0.65;;;0.60;;
74612;SDS011;63119;51.788;8.824;2023-04-24T02:45:22;1.60;;;0.67;;
74612;SDS011;63119;51.788;8.824;2023-04-24T02:47:47;2.70;;;0.80;;
74612;SDS011;63119;51.788;8.824;2023-04-24T02:50:12;3.27;;;0.93;;
74612;SDS011;63119;51.788;8.824;2023-04-24T02:52:38;0.77;;;0.63;;
74612;SDS011;63119;51.788;8.824;2023-04-24T02:55:03;1.07;;;0.67;;
74612;SDS011;63119;51.788;8.824;2023-04-24T02:57:29;0.77;;;0.50;;
74612;SDS011;63119;51.788;8.824;2023-04-24T02:59:54;1.13;;;0.77;;
74612;SDS011;63119;51.788;8.824;2023-04-24T03:02:20;1.63;;;0.60;;
74612;SDS011;63119;51.788;8.824;2023-04-24T03:04:45;2.05;;;0.60;;
74612;SDS011;63119;51.788;8.824;2023-04-24T03:07:12;0.85;;;0.50;;
74612;SDS011;63119;51.788;8.824;2023-04-24T03:09:38;0.68;;;0.60;;
74612;SDS011;63119;51.788;8.824;2023-04-24T03:12:03;0.63;;;0.60;;
74612;SDS011;63119;51.788;8.824;2023-04-24T03:14:28;2.75;;;0.63;;
74612;SDS011;63119;51.788;8.824;2023-04-24T03:16:56;1.67;;;0.60;;
74612;SDS011;63119;51.788;8.824;2023-04-24T03:19:21;0.73;;;0.50;;
74612;SDS011;63119;51.788;8.824;2023-04-24T03:21:46;2.37;;;0.60;;
74612;SDS011;63119;51.788;8.824;2023-04-24T03:24:12;1.13;;;0.70;;
74612;SDS011;63119;51.788;8.824;2023-04-24T03:26:37;1.00;;;0.60;;
74612;SDS011;63119;51.788;8.824;2023-04-24T03:29:02;1.17;;;0.50;;
74612;SDS011;63119;51.788;8.824;2023-04-24T03:31:27;2.70;;;0.70;;
74612;SDS011;63119;51.788;8.824;2023-04-24T03:33:53;0.83;;;0.50;;
74612;SDS011;63119;51.788;8.824;2023-04-24T03:36:18;2.90;;;0.90;;
74612;SDS011;63119;51.788;8.824;2023-04-24T03:38:44;2.85;;;0.70;;
74612;SDS011;63119;51.788;8.824;2023-04-24T03:41:10;1.13;;;0.77;;
74612;SDS011;63119;51.788;8.824;2023-04-24T03:43:35;1.00;;;0.70;;
74612;SDS011;63119;51.788;8.824;2023-04-24T03:46:00;0.67;;;0.50;;
74612;SDS011;63119;51.788;8.824;2023-04-24T03:48:26;0.95;;;0.75;;
74612;SDS011;63119;51.788;8.824;2023-04-24T03:50:51;0.73;;;0.70;;
74612;SDS011;63119;51.788;8.824;2023-04-24T03:53:16;1.07;;;0.80;;
74612;SDS011;63119;51.788;8.824;2023-04-24T03:55:42;0.93;;;0.70;;
74612;SDS011;63119;51.788;8.824;2023-04-24T03:58:07;0.93;;;0.80;;
74612;SDS011;63119;51.788;8.824;2023-04-24T04:00:32;0.80;;;0.60;;
74612;SDS011;63119;51.788;8.824;2023-04-24T04:02:58;3.15;;;0.68;;
74612;SDS011;63119;51.788;8.824;2023-04-24T04:05:23;1.55;;;0.77;;
74612;SDS011;63119;51.788;8.824;2023-04-24T04:07:49;1.40;;;0.70;;
74612;SDS011;63119;51.788;8.824;2023-04-24T04:10:14;1.37;;;0.93;;
74612;SDS011;63119;51.788;8.824;2023-04-24T04:12:39;0.87;;;0.63;;
74612;SDS011;63119;51.788;8.824;2023-04-24T04:15:05;0.70;;;0.60;;
74612;SDS011;63119;51.788;8.824;2023-04-24T04:17:31;2.00;;;0.77;;
74612;SDS011;63119;51.788;8.824;2023-04-24T04:19:57;1.67;;;0.85;;
74612;SDS011;63119;51.788;8.824;2023-04-24T04:22:22;1.80;;;0.80;;
74612;SDS011;63119;51.788;8.824;2023-04-24T04:24:47;1.40;;;0.88;;
74612;SDS011;63119;51.788;8.824;2023-04-24T04:27:13;3.30;;;0.90;;
74612;SDS011;63119;51.788;8.824;2023-04-24T04:29:38;1.67;;;1.00;;
74612;SDS011;63119;51.788;8.824;2023-04-24T04:32:05;1.80;;;1.20;;
74612;SDS011;63119;51.788;8.824;2023-04-24T04:34:30;2.13;;;1.30;;
74612;SDS011;63119;51.788;8.824;2023-04-24T04:36:56;2.25;;;1.30;;
74612;SDS011;63119;51.788;8.824;2023-04-24T04:39:24;1.77;;;1.33;;
74612;SDS011;63119;51.788;8.824;2023-04-24T04:41:49;2.05;;;1.42;;
74612;SDS011;63119;51.788;8.824;2023-04-24T04:44:15;2.03;;;1.45;;
74612;SDS011;63119;51.788;8.824;2023-04-24T04:46:40;3.00;;;1.37;;
74612;SDS011;63119;51.788;8.824;2023-04-24T04:49:06;2.42;;;1.30;;
74612;SDS011;63119;51.788;8.824;2023-04-24T04:51:33;1.42;;;1.13;;
74612;SDS011;63119;51.788;8.824;2023-04-24T04:53:58;2.38;;;1.65;;
74612;SDS011;63119;51.788;8.824;2023-04-24T04:56:23;2.17;;;1.23;;
74612;SDS011;63119;51.788;8.824;2023-04-24T04:58:49;2.83;;;1.40;;
74612;SDS011;63119;51.788;8.824;2023-04-24T05:01:14;2.10;;;1.47;;
74612;SDS011;63119;51.788;8.824;2023-04-24T05:03:40;3.20;;;1.73;;
74612;SDS011;63119;51.788;8.824;2023-04-24T05:06:05;2.72;;;1.30;;
74612;SDS011;63119;51.788;8.824;2023-04-24T05:08:31;2.58;;;1.50;;
74612;SDS011;63119;51.788;8.824;2023-04-24T05:10:56;2.47;;;1.50;;
74612;SDS011;63119;51.788;8.824;2023-04-24T05:13:21;1.87;;;1.30;;
74612;SDS011;63119;51.788;8.824;2023-04-24T05:15:47;2.43;;;1.60;;
74612;SDS011;63119;51.788;8.824;2023-04-24T05:18:12;2.90;;;1.80;;
74612;SDS011;63119;51.788;8.824;2023-04-24T05:20:37;3.97;;;1.77;;
74612;SDS011;63119;51.788;8.824;2023-04-24T05:23:02;3.27;;;2.07;;
74612;SDS011;63119;51.788;8.824;2023-04-24T05:25:27;4.83;;;2.10;;
74612;SDS011;63119;51.788;8.824;2023-04-24T05:27:53;3.20;;;2.20;;
74612;SDS011;63119;51.788;8.824;2023-04-24T05:30:18;4.13;;;2.90;;
74612;SDS011;63119;51.788;8.824;2023-04-24T05:32:44;4.47;;;2.50;;
74612;SDS011;63119;51.788;8.824;2023-04-24T05:35:09;4.20;;;2.95;;
74612;SDS011;63119;51.788;8.824;2023-04-24T05:37:35;5.27;;;3.40;;
74612;SDS011;63119;51.788;8.824;2023-04-24T05:40:00;3.47;;;2.43;;
74612;SDS011;63119;51.788;8.824;2023-04-24T05:42:25;5.00;;;2.80;;
74612;SDS011;63119;51.788;8.824;2023-04-24T05:44:51;4.37;;;3.17;;
74612;SDS011;63119;51.788;8.824;2023-04-24T05:47:16;4.80;;;3.23;;
74612;SDS011;63119;51.788;8.824;2023-04-24T05:49:41;5.73;;;3.57;;
74612;SDS011;63119;51.788;8.824;2023-04-24T05:52:06;6.13;;;3.87;;
74612;SDS011;63119;51.788;8.824;2023-04-24T05:54:33;5.85;;;4.32;;
74612;SDS011;63119;51.788;8.824;2023-04-24T05:56:59;8.40;;;4.85;;
74612;SDS011;63119;51.788;8.824;2023-04-24T05:59:26;8.95;;;5.07;;
74612;SDS011;63119;51.788;8.824;2023-04-24T06:01:51;8.27;;;4.60;;
74612;SDS011;63119;51.788;8.824;2023-04-24T06:04:16;11.57;;;5.13;;
74612;SDS011;63119;51.788;8.824;2023-04-24T06:06:42;9.73;;;5.53;;
74612;SDS011;63119;51.788;8.824;2023-04-24T06:09:07;10.33;;;5.23;;
74612;SDS011;63119;51.788;8.824;2023-04-24T06:11:32;7.67;;;4.47;;
74612;SDS011;63119;51.788;8.824;2023-04-24T06:13:57;7.27;;;4.30;;
74612;SDS011;63119;51.788;8.824;2023-04-24T06:16:23;6.03;;;4.43;;
74612;SDS011;63119;51.788;8.824;2023-04-24T06:18:48;7.97;;;4.50;;
74612;SDS011;63119;51.788;8.824;2023-04-24T06:21:16;6.93;;;4.17;;
74612;SDS011;63119;51.788;8.824;2023-04-24T06:23:42;6.93;;;4.10;;
74612;SDS011;63119;51.788;8.824;2023-04-24T06:26:07;8.37;;;4.03;;
74612;SDS011;63119;51.788;8.824;2023-04-24T06:28:33;8.23;;;4.23;;
74612;SDS011;63119;51.788;8.824;2023-04-24T06:30:58;6.17;;;4.20;;
74612;SDS011;63119;51.788;8.824;2023-04-24T06:33:23;7.70;;;3.90;;
74612;SDS011;63119;51.788;8.824;2023-04-24T06:35:48;5.83;;;3.70;;
74612;SDS011;63119;51.788;8.824;2023-04-24T06:38:14;5.87;;;3.87;;
74612;SDS011;63119;51.788;8.824;2023-04-24T06:40:40;8.00;;;4.00;;
74612;SDS011;63119;51.788;8.824;2023-04-24T06:43:06;6.70;;;4.37;;
74612;SDS011;63119;51.788;8.824;2023-04-24T06:45:31;7.07;;;4.60;;
74612;SDS011;63119;51.788;8.824;2023-04-24T06:47:56;9.73;;;4.67;;
74612;SDS011;63119;51.788;8.824;2023-04-24T06:50:24;9.25;;;4.43;;
74612;SDS011;63119;51.788;8.824;2023-04-24T06:52:49;8.45;;;4.38;;
74612;SDS011;63119;51.788;8.824;2023-04-24T06:55:14;6.43;;;4.22;;
74612;SDS011;63119;51.788;8.824;2023-04-24T06:57:41;8.55;;;4.15;;
74612;SDS011;63119;51.788;8.824;2023-04-24T07:00:06;6.80;;;4.43;;
74612;SDS011;63119;51.788;8.824;2023-04-24T07:02:34;6.15;;;3.80;;
74612;SDS011;63119;51.788;8.824;2023-04-24T07:05:00;7.22;;;4.03;;
74612;SDS011;63119;51.788;8.824;2023-04-24T07:07:26;6.55;;;4.30;;
74612;SDS011;63119;51.788;8.824;2023-04-24T07:09:51;6.27;;;3.40;;
74612;SDS011;63119;51.788;8.824;2023-04-24T07:12:16;6.63;;;3.63;;
74612;SDS011;63119;51.788;8.824;2023-04-24T07:14:42;10.90;;;4.07;;
74612;SDS011;63119;51.788;8.824;2023-04-24T07:17:07;5.20;;;3.50;;
74612;SDS011;63119;51.788;8.824;2023-04-24T07:19:33;6.85;;;3.78;;
74612;SDS011;63119;51.788;8.824;2023-04-24T07:22:00;6.97;;;3.78;;
74612;SDS011;63119;51.788;8.824;2023-04-24T07:24:25;7.13;;;3.37;;
74612;SDS011;63119;51.788;8.824;2023-04-24T07:26:51;5.57;;;3.20;;
74612;SDS011;63119;51.788;8.824;2023-04-24T07:29:16;8.88;;;3.67;;
74612;SDS011;63119;51.788;8.824;2023-04-24T07:31:42;6.55;;;3.45;;
74612;SDS011;63119;51.788;8.824;2023-04-24T07:34:07;7.23;;;3.30;;
74612;SDS011;63119;51.788;8.824;2023-04-24T07:36:32;5.17;;;3.40;;
74612;SDS011;63119;51.788;8.824;2023-04-24T07:38:58;7.83;;;3.73;;
74612;SDS011;63119;51.788;8.824;2023-04-24T07:41:23;5.90;;;3.50;;
74612;SDS011;63119;51.788;8.824;2023-04-24T07:43:49;6.30;;;3.67;;
74612;SDS011;63119;51.788;8.824;2023-04-24T07:46:14;5.68;;;3.15;;
74612;SDS011;63119;51.788;8.824;2023-04-24T07:48:40;4.57;;;3.10;;
74612;SDS011;63119;51.788;8.824;2023-04-24T07:51:05;5.80;;;3.00;;
74612;SDS011;63119;51.788;8.824;2023-04-24T07:53:30;4.97;;;2.90;;
74612;SDS011;63119;51.788;8.824;2023-04-24T07:55:56;5.80;;;3.20;;
74612;SDS011;63119;51.788;8.824;2023-04-24T07:58:21;3.80;;;2.70;;
74612;SDS011;63119;51.788;8.824;2023-04-24T08:00:46;4.57;;;2.72;;
74612;SDS011;63119;51.788;8.824;2023-04-24T08:03:12;5.43;;;2.83;;
74612;SDS011;63119;51.788;8.824;2023-04-24T08:05:37;4.78;;;3.10;;
74612;SDS011;63119;51.788;8.824;2023-04-24T08:08:03;5.57;;;2.80;;
74612;SDS011;63119;51.788;8.824;2023-04-24T08:10:28;4.87;;;2.90;;
74612;SDS011;63119;51.788;8.824;2023-04-24T08:12:53;5.83;;;2.60;;
74612;SDS011;63119;51.788;8.824;2023-04-24T08:15:20;5.05;;;2.80;;
74612;SDS011;63119;51.788;8.824;2023-04-24T08:17:45;4.33;;;3.00;;
74612;SDS011;63119;51.788;8.824;2023-04-24T08:20:10;4.30;;;2.83;;
74612;SDS011;63119;51.788;8.824;2023-04-24T08:22:38;5.22;;;2.63;;
74612;SDS011;63119;51.788;8.824;2023-04-24T08:25:05;4.93;;;2.25;;
74612;SDS011;63119;51.788;8.824;2023-04-24T08:27:31;4.68;;;2.13;;
74612;SDS011;63119;51.788;8.824;2023-04-24T08:29:56;4.33;;;2.27;;
74612;SDS011;63119;51.788;8.824;2023-04-24T08:32:22;4.13;;;2.25;;
74612;SDS011;63119;51.788;8.824;2023-04-24T08:34:47;4.30;;;2.42;;
74612;SDS011;63119;51.788;8.824;2023-04-24T08:37:12;5.10;;;2.07;;
74612;SDS011;63119;51.788;8.824;2023-04-24T08:39:38;2.83;;;1.90;;
74612;SDS011;63119;51.788;8.824;2023-04-24T08:42:04;3.93;;;1.90;;
74612;SDS011;63119;51.788;8.824;2023-04-24T08:44:30;5.40;;;2.00;;
74612;SDS011;63119;51.788;8.824;2023-04-24T08:47:01;5.10;;;2.45;;
74612;SDS011;63119;51.788;8.824;2023-04-24T08:49:27;5.07;;;2.42;;
74612;SDS011;63119;51.788;8.824;2023-04-24T08:51:53;4.32;;;2.33;;
74612;SDS011;63119;51.788;8.824;2023-04-24T08:54:19;4.00;;;2.60;;
74612;SDS011;63119;51.788;8.824;2023-04-24T08:56:45;5.18;;;2.28;;
74612;SDS011;63119;51.788;8.824;2023-04-24T08:59:14;3.42;;;1.90;;
74612;SDS011;63119;51.788;8.824;2023-04-24T09:01:40;3.53;;;2.22;;
74612;SDS011;63119;51.788;8.824;2023-04-24T09:04:06;3.45;;;2.40;;
74612;SDS011;63119;51.788;8.824;2023-04-24T09:06:34;4.28;;;1.98;;
74612;SDS011;63119;51.788;8.824;2023-04-24T09:09:00;4.72;;;2.20;;
74612;SDS011;63119;51.788;8.824;2023-04-24T09:11:28;3.88;;;2.20;;
74612;SDS011;63119;51.788;8.824;2023-04-24T09:13:55;3.53;;;2.13;;
74612;SDS011;63119;51.788;8.824;2023-04-24T09:16:21;4.45;;;1.90;;
74612;SDS011;63119;51.788;8.824;2023-04-24T09:18:49;6.93;;;2.58;;
74612;SDS011;63119;51.788;8.824;2023-04-24T09:21:14;4.32;;;2.30;;
74612;SDS011;63119;51.788;8.824;2023-04-24T09:23:39;2.70;;;1.53;;
74612;SDS011;63119;51.788;8.824;2023-04-24T09:26:05;2.40;;;1.60;;
74612;SDS011;63119;51.788;8.824;2023-04-24T09:28:38;2.77;;;1.40;;
74612;SDS011;63119;51.788;8.824;2023-04-24T09:31:14;3.00;;;1.38;;
74612;SDS011;63119;51.788;8.824;2023-04-24T09:33:56;2.25;;;1.20;;
74612;SDS011;63119;51.788;8.824;2023-04-24T09:36:31;3.15;;;1.20;;
74612;SDS011;63119;51.788;8.824;2023-04-24T09:38:59;3.17;;;1.40;;
74612;SDS011;63119;51.788;8.824;2023-04-24T09:41:26;1.83;;;1.27;;
74612;SDS011;63119;51.788;8.824;2023-04-24T09:43:56;2.33;;;1.23;;
74612;SDS011;63119;51.788;8.824;2023-04-24T09:46:28;2.13;;;1.10;;
74612;SDS011;63119;51.788;8.824;2023-04-24T09:48:55;1.63;;;1.10;;
74612;SDS011;63119;51.788;8.824;2023-04-24T09:51:28;5.17;;;1.37;;
74612;SDS011;63119;51.788;8.824;2023-04-24T09:53:58;1.77;;;1.10;;
74612;SDS011;63119;51.788;8.824;2023-04-24T09:56:23;1.70;;;0.90;;
74612;SDS011;63119;51.788;8.824;2023-04-24T09:58:50;1.10;;;0.77;;
74612;SDS011;63119;51.788;8.824;2023-04-24T10:01:16;4.50;;;1.03;;
74612;SDS011;63119;51.788;8.824;2023-04-24T10:03:42;2.00;;;1.00;;
74612;SDS011;63119;51.788;8.824;2023-04-24T10:06:07;4.63;;;0.93;;
74612;SDS011;63119;51.788;8.824;2023-04-24T10:08:36;3.50;;;0.80;;
74612;SDS011;63119;51.788;8.824;2023-04-24T10:11:02;1.30;;;0.63;;
74612;SDS011;63119;51.788;8.824;2023-04-24T10:13:28;1.45;;;0.90;;
74612;SDS011;63119;51.788;8.824;2023-04-24T10:15:53;1.00;;;0.70;;
74612;SDS011;63119;51.788;8.824;2023-04-24T10:18:19;1.00;;;0.80;;
74612;SDS011;63119;51.788;8.824;2023-04-24T10:20:46;0.95;;;0.57;;
74612;SDS011;63119;51.788;8.824;2023-04-24T10:23:11;1.20;;;0.70;;
74612;SDS011;63119;51.788;8.824;2023-04-24T10:25:36;1.42;;;0.68;;
74612;SDS011;63119;51.788;8.824;2023-04-24T10:28:02;0.88;;;0.40;;
74612;SDS011;63119;51.788;8.824;2023-04-24T10:30:32;0.82;;;0.45;;
74612;SDS011;63119;51.788;8.824;2023-04-24T10:33:01;1.60;;;0.50;;
74612;SDS011;63119;51.788;8.824;2023-04-24T10:35:29;0.90;;;0.45;;
74612;SDS011;63119;51.788;8.824;2023-04-24T10:38:03;1.77;;;0.55;;
74612;SDS011;63119;51.788;8.824;2023-04-24T10:40:32;0.60;;;0.47;;
74612;SDS011;63119;51.788;8.824;2023-04-24T10:43:01;0.90;;;0.60;;
74612;SDS011;63119;51.788;8.824;2023-04-24T10:45:27;2.08;;;0.82;;
74612;SDS011;63119;51.788;8.824;2023-04-24T10:48:05;0.80;;;0.80;;
74612;SDS011;63119;51.788;8.824;2023-04-24T10:50:51;1.30;;;0.40;;
74612;SDS011;63119;51.788;8.824;2023-04-24T10:53:18;0.52;;;0.40;;
74612;SDS011;63119;51.788;8.824;2023-04-24T10:58:22;0.40;;;0.40;;
74612;SDS011;63119;51.788;8.824;2023-04-24T11:00:58;0.40;;;0.40;;
74612;SDS011;63119;51.788;8.824;2023-04-24T11:03:28;1.35;;;0.70;;
74612;SDS011;63119;51.788;8.824;2023-04-24T11:08:25;0.50;;;0.50;;
74612;SDS011;63119;51.788;8.824;2023-04-24T11:21:48;0.93;;;0.60;;
74612;SDS011;63119;51.788;8.824;2023-04-24T11:26:51;2.47;;;0.73;;
74612;SDS011;63119;51.788;8.824;2023-04-24T11:29:19;0.93;;;0.60;;
74612;SDS011;63119;51.788;8.824;2023-04-24T11:31:45;0.55;;;0.47;;
74612;SDS011;63119;51.788;8.824;2023-04-24T11:34:14;0.77;;;0.75;;
74612;SDS011;63119;51.788;8.824;2023-04-24T11:36:44;1.13;;;0.70;;
74612;SDS011;63119;51.788;8.824;2023-04-24T11:39:13;1.20;;;0.90;;
74612;SDS011;63119;51.788;8.824;2023-04-24T11:41:39;1.20;;;0.75;;
74612;SDS011;63119;51.788;8.824;2023-04-24T11:44:06;2.92;;;1.20;;
74612;SDS011;63119;51.788;8.824;2023-04-24T11:46:33;1.58;;;1.13;;
74612;SDS011;63119;51.788;8.824;2023-04-24T11:48:58;1.63;;;1.15;;
74612;SDS011;63119;51.788;8.824;2023-04-24T11:51:25;1.88;;;1.45;;
74612;SDS011;63119;51.788;8.824;2023-04-24T11:53:51;1.90;;;1.50;;
74612;SDS011;63119;51.788;8.824;2023-04-24T11:56:18;1.50;;;1.20;;
74612;SDS011;63119;51.788;8.824;2023-04-24T11:58:44;3.20;;;1.40;;
74612;SDS011;63119;51.788;8.824;2023-04-24T12:01:10;2.22;;;1.55;;
74612;SDS011;63119;51.788;8.824;2023-04-24T12:03:36;2.40;;;1.70;;
74612;SDS011;63119;51.788;8.824;2023-04-24T12:06:04;2.00;;;1.50;;
74612;SDS011;63119;51.788;8.824;2023-04-24T12:08:34;2.60;;;1.70;;
74612;SDS011;63119;51.788;8.824;2023-04-24T12:11:00;2.40;;;1.57;;
74612;SDS011;63119;51.788;8.824;2023-04-24T12:13:26;3.45;;;1.65;;
74612;SDS011;63119;51.788;8.824;2023-04-24T12:15:51;2.25;;;1.55;;
74612;SDS011;63119;51.788;8.824;2023-04-24T12:18:17;1.80;;;1.40;;
74612;SDS011;63119;51.788;8.824;2023-04-24T12:20:43;3.13;;;2.15;;
74612;SDS011;63119;51.788;8.824;2023-04-24T12:23:08;2.78;;;1.70;;
74612;SDS011;63119;51.788;8.824;2023-04-24T12:25:33;2.53;;;1.43;;
74612;SDS011;63119;51.788;8.824;2023-04-24T12:30:28;1.90;;;1.02;;
74612;SDS011;63119;51.788;8.824;2023-04-24T12:32:54;2.47;;;1.20;;
74612;SDS011;63119;51.788;8.824;2023-04-24T12:35:23;2.05;;;1.40;;
74612;SDS011;63119;51.788;8.824;2023-04-24T12:37:49;2.05;;;1.25;;
74612;SDS011;63119;51.788;8.824;2023-04-24T12:40:15;2.50;;;1.23;;
74612;SDS011;63119;51.788;8.824;2023-04-24T12:42:44;6.43;;;1.40;;
74612;SDS011;63119;51.788;8.824;2023-04-24T12:45:14;2.80;;;1.17;;
74612;SDS011;63119;51.788;8.824;2023-04-24T12:47:41;1.98;;;1.00;;
74612;SDS011;63119;51.788;8.824;2023-04-24T12:50:07;2.55;;;1.13;;
74612;SDS011;63119;51.788;8.824;2023-04-24T12:52:34;3.55;;;1.42;;
74612;SDS011;63119;51.788;8.824;2023-04-24T12:55:00;3.65;;;1.30;;
74612;SDS011;63119;51.788;8.824;2023-04-24T12:57:26;3.75;;;1.25;;
74612;SDS011;63119;51.788;8.824;2023-04-24T12:59:57;3.17;;;1.33;;
74612;SDS011;63119;51.788;8.824;2023-04-24T13:02:23;4.55;;;1.88;;
74612;SDS011;63119;51.788;8.824;2023-04-24T13:04:50;4.35;;;2.00;;
74612;SDS011;63119;51.788;8.824;2023-04-24T13:07:16;4.50;;;1.83;;
74612;SDS011;63119;51.788;8.824;2023-04-24T13:09:42;4.25;;;2.15;;
74612;SDS011;63119;51.788;8.824;2023-04-24T13:12:08;5.05;;;2.30;;
74612;SDS011;63119;51.788;8.824;2023-04-24T13:14:34;4.78;;;1.98;;
74612;SDS011;63119;51.788;8.824;2023-04-24T13:17:00;5.00;;;2.63;;
74612;SDS011;63119;51.788;8.824;2023-04-24T13:19:26;3.93;;;2.30;;
74612;SDS011;63119;51.788;8.824;2023-04-24T13:21:52;7.53;;;2.92;;
74612;SDS011;63119;51.788;8.824;2023-04-24T13:24:20;4.93;;;2.92;;
74612;SDS011;63119;51.788;8.824;2023-04-24T13:26:45;7.83;;;3.53;;
74612;SDS011;63119;51.788;8.824;2023-04-24T13:29:10;10.35;;;4.15;;
74612;SDS011;63119;51.788;8.824;2023-04-24T13:31:35;7.17;;;3.50;;
74612;SDS011;63119;51.788;8.824;2023-04-24T13:34:02;6.87;;;3.90;;
74612;SDS011;63119;51.788;8.824;2023-04-24T13:36:27;8.82;;;3.72;;
74612;SDS011;63119;51.788;8.824;2023-04-24T13:38:53;8.15;;;3.75;;
74612;SDS011;63119;51.788;8.824;2023-04-24T13:41:18;9.27;;;3.90;;
74612;SDS011;63119;51.788;8.824;2023-04-24T13:43:43;10.57;;;4.50;;
74612;SDS011;63119;51.788;8.824;2023-04-24T13:46:09;6.13;;;3.97;;
74612;SDS011;63119;51.788;8.824;2023-04-24T13:48:34;9.27;;;4.30;;
74612;SDS011;63119;51.788;8.824;2023-04-24T13:50:59;7.63;;;4.33;;
74612;SDS011;63119;51.788;8.824;2023-04-24T13:53:25;6.80;;;3.78;;
74612;SDS011;63119;51.788;8.824;2023-04-24T13:55:50;9.23;;;4.87;;
74612;SDS011;63119;51.788;8.824;2023-04-24T13:58:16;9.13;;;4.40;;
74612;SDS011;63119;51.788;8.824;2023-04-24T14:00:41;7.80;;;4.13;;
74612;SDS011;63119;51.788;8.824;2023-04-24T14:03:06;9.37;;;4.63;;
74612;SDS011;63119;51.788;8.824;2023-04-24T14:05:31;9.77;;;4.00;;
74612;SDS011;63119;51.788;8.824;2023-04-24T14:07:57;12.33;;;4.70;;
74612;SDS011;63119;51.788;8.824;2023-04-24T14:10:22;8.83;;;4.37;;
74612;SDS011;63119;51.788;8.824;2023-04-24T14:12:47;12.77;;;4.40;;
74612;SDS011;63119;51.788;8.824;2023-04-24T14:15:13;10.20;;;5.30;;
74612;SDS011;63119;51.788;8.824;2023-04-24T14:17:38;10.60;;;6.63;;
74612;SDS011;63119;51.788;8.824;2023-04-24T14:20:04;9.90;;;5.43;;
74612;SDS011;63119;51.788;8.824;2023-04-24T14:22:29;10.25;;;5.15;;
74612;SDS011;63119;51.788;8.824;2023-04-24T14:24:55;13.13;;;6.25;;
74612;SDS011;63119;51.788;8.824;2023-04-24T14:27:20;9.93;;;5.40;;
74612;SDS011;63119;51.788;8.824;2023-04-24T14:29:45;14.33;;;5.70;;
74612;SDS011;63119;51.788;8.824;2023-04-24T14:32:11;15.17;;;6.03;;
74612;SDS011;63119;51.788;8.824;2023-04-24T14:34:36;11.70;;;6.33;;
74612;SDS011;63119;51.788;8.824;2023-04-24T14:37:01;16.37;;;6.23;;
74612;SDS011;63119;51.788;8.824;2023-04-24T14:39:27;14.25;;;6.60;;
74612;SDS011;63119;51.788;8.824;2023-04-24T14:41:53;13.32;;;6.68;;
74612;SDS011;63119;51.788;8.824;2023-04-24T14:44:18;15.13;;;6.85;;
74612;SDS011;63119;51.788;8.824;2023-04-24T14:46:44;12.13;;;6.30;;
74612;SDS011;63119;51.788;8.824;2023-04-24T14:49:09;10.57;;;6.10;;
74612;SDS011;63119;51.788;8.824;2023-04-24T14:51:37;13.03;;;6.40;;
74612;SDS011;63119;51.788;8.824;2023-04-24T14:54:03;12.57;;;5.25;;
74612;SDS011;63119;51.788;8.824;2023-04-24T14:56:28;13.77;;;7.13;;
74612;SDS011;63119;51.788;8.824;2023-04-24T14:58:54;12.57;;;5.93;;
74612;SDS011;63119;51.788;8.824;2023-04-24T15:01:20;14.52;;;6.13;;